createdAt,value
2022-10-10T06:13:51.113Z,100.00
2022-10-10T06:23:53.651Z,100.00
2022-10-10T06:33:55.739Z,100.00
2022-10-10T06:43:57.655Z,100.00
2022-10-10T06:53:59.861Z,100.00
2022-10-10T07:04:02.139Z,100.00
2022-10-10T07:14:04.029Z,100.00
2022-10-10T07:24:05.943Z,100.00
2022-10-10T07:34:07.903Z,100.00
2022-10-10T07:44:09.730Z,100.00
2022-10-10T07:54:11.645Z,98.65
2022-10-10T08:04:13.729Z,99.93
2022-10-10T08:14:15.591Z,100.00
2022-10-10T08:24:17.537Z,100.00
2022-10-10T08:34:19.572Z,100.00
2022-10-10T08:44:33.637Z,100.00
2022-10-10T08:54:39.119Z,100.00
2022-10-10T09:04:41.067Z,100.00
2022-10-10T09:14:59.768Z,99.70
2022-10-10T09:25:27.295Z,99.36
2022-10-10T09:35:34.774Z,96.59
2022-10-10T09:45:42.490Z,95.92
2022-10-10T09:55:47.041Z,94.40
2022-10-10T10:05:55.621Z,90.61
2022-10-10T10:16:03.393Z,87.26
2022-10-10T10:26:15.642Z,84.61
2022-10-10T10:36:46.337Z,79.48
2022-10-10T10:47:07.341Z,79.94
2022-10-10T10:58:00.109Z,78.44
2022-10-10T11:08:05.251Z,79.06
2022-10-10T11:18:16.164Z,80.66
2022-10-10T11:28:28.126Z,78.44
2022-10-10T11:38:36.309Z,77.18
2022-10-10T11:49:06.250Z,79.28
2022-10-10T11:59:34.048Z,80.49
2022-10-10T12:09:43.744Z,78.66
2022-10-10T12:19:48.695Z,75.76
2022-10-10T12:29:56.721Z,74.08
2022-10-10T12:40:08.033Z,72.71
2022-10-10T12:50:34.570Z,69.83
2022-10-10T13:00:45.328Z,68.99
2022-10-10T13:11:02.695Z,68.03
2022-10-10T13:21:09.028Z,64.47
2022-10-10T13:31:13.974Z,64.16
2022-10-10T13:41:20.968Z,62.22
2022-10-10T13:51:42.312Z,62.26
2022-10-10T14:12:43.114Z,62.08
2022-10-10T14:22:44.988Z,62.65
2022-10-10T14:32:47.013Z,63.39
2022-10-10T14:42:49.262Z,63.03
2022-10-10T14:52:51.276Z,64.68
2022-10-10T15:02:53.207Z,66.51
2022-10-10T15:12:55.479Z,68.17
2022-10-10T15:23:06.045Z,71.12
2022-10-10T15:33:08.722Z,75.43
2022-10-10T15:43:10.844Z,77.51
2022-10-10T15:53:12.876Z,79.58
2022-10-10T16:03:14.936Z,83.20
2022-10-10T16:13:18.916Z,84.28
2022-10-10T16:23:20.843Z,85.88
2022-10-10T16:33:23.047Z,88.77
2022-10-10T16:43:25.115Z,90.11
2022-10-10T16:53:27.554Z,91.30
2022-10-10T17:03:29.814Z,92.59
2022-10-10T17:13:32.003Z,94.54
2022-10-10T17:23:34.033Z,95.34
2022-10-10T17:33:37.981Z,96.97
2022-10-10T17:43:40.887Z,98.57
2022-10-10T17:53:44.808Z,99.21
2022-10-10T18:03:48.452Z,99.97
2022-10-10T18:13:51.551Z,100.00
2022-10-10T18:23:54.541Z,100.00
2022-10-10T18:33:56.953Z,100.00
2022-10-10T18:43:59.341Z,100.00
2022-10-10T18:54:08.614Z,100.00
2022-10-10T19:04:10.879Z,100.00
2022-10-10T19:14:17.537Z,100.00
2022-10-10T19:24:29.622Z,100.00
2022-10-10T19:34:32.803Z,100.00
2022-10-10T19:44:35.337Z,100.00
2022-10-10T19:54:37.327Z,100.00
2022-10-10T20:04:39.549Z,100.00
2022-10-10T20:14:41.683Z,100.00
2022-10-10T20:24:43.955Z,100.00
2022-10-10T20:34:47.251Z,100.00
2022-10-10T20:44:49.998Z,100.00
2022-10-10T20:54:52.810Z,100.00
2022-10-10T21:04:54.688Z,100.00
2022-10-10T21:15:01.810Z,100.00
2022-10-10T21:25:04.167Z,100.00
2022-10-10T21:35:06.301Z,100.00
2022-10-10T21:45:09.016Z,100.00
2022-10-10T21:55:10.860Z,100.00
2022-10-10T22:05:13.922Z,100.00
2022-10-10T22:15:16.034Z,100.00
2022-10-10T22:25:18.972Z,100.00
2022-10-10T22:35:20.834Z,100.00
2022-10-10T22:45:23.458Z,100.00
2022-10-10T22:55:25.353Z,100.00
2022-10-10T23:05:27.259Z,100.00
2022-10-10T23:15:29.208Z,100.00
2022-10-10T23:25:31.078Z,100.00
2022-10-10T23:35:33.160Z,100.00
2022-10-10T23:45:35.106Z,100.00
2022-10-10T23:55:37.034Z,100.00
